Time;durP1;ratioP1;P1;durP2;ratioP2;P2;SDS_P1;SDS_P2;PMS_P1;PMS_P2;Temp;Humidity;BMP_temperature;BMP_pressure;BME280_temperature;BME280_humidity;BME280_pressure;Samples;Min_cycle;Max_cycle;Signal;HPM_P1;HPM_P2
2023/06/28 00:01:22;;;;;;;;;;;;;;;17.01;100.00;99329.50;5053249;28;771;-57
2023/06/28 00:03:49;;;;;;;;;;;;;;;16.99;100.00;99329.19;5053131;28;815;-57
2023/06/28 00:06:16;;;;;;;;;;;;;;;16.89;100.00;99328.34;5052638;28;846;-57
2023/06/28 00:08:42;;;;;;;;;;;;;;;16.83;100.00;99336.53;5052323;28;827;-57
2023/06/28 00:11:09;;;;;;;;;;;;;;;16.74;100.00;99336.47;5052224;28;926;-57
2023/06/28 00:13:36;;;;;;;;;;;;;;;16.72;100.00;99336.91;5052012;28;1416;-57
2023/06/28 00:16:03;;;;;;;;;;;;;;;16.83;100.00;99336.53;5051991;28;2088;-57
2023/06/28 00:18:30;;;;;;;;;;;;;;;16.95;100.00;99332.13;5052121;28;850;-57
2023/06/28 00:20:57;;;;;;;;;;;;;;;17.02;100.00;99328.25;5052002;28;881;-57
2023/06/28 00:23:23;;;;;;;;;;;;;;;17.07;100.00;99342.41;5052050;28;807;-57
2023/06/28 00:25:50;;;;;;;;;;;;;;;17.14;100.00;99338.56;5051966;28;826;-57
2023/06/28 00:28:17;;;;;;;;;;;;;;;17.17;100.00;99337.63;5051861;28;848;-57
2023/06/28 00:30:44;;;;;;;;;;;;;;;17.19;100.00;99337.19;5051914;28;893;-57
2023/06/28 00:33:11;;;;;;;;;;;;;;;17.20;100.00;99333.13;5051972;28;791;-57
2023/06/28 00:35:37;;;;;;;;;;;;;;;17.18;100.00;99330.06;5051706;28;1890;-57
2023/06/28 00:38:04;;;;;;;;;;;;;;;17.12;100.00;99335.44;5051983;28;802;-57
2023/06/28 00:40:31;;;;;;;;;;;;;;;17.08;100.00;99329.22;5051777;28;799;-59
2023/06/28 00:42:58;;;;;;;;;;;;;;;17.04;100.00;99329.34;5051671;28;803;-57
2023/06/28 00:45:25;;;;;;;;;;;;;;;17.01;100.00;99327.50;5051713;28;822;-57
2023/06/28 00:47:52;;;;;;;;;;;;;;;17.01;100.00;99329.50;5051609;28;893;-57
2023/06/28 00:50:19;;;;;;;;;;;;;;;17.04;100.00;99331.38;5051585;28;807;-57
2023/06/28 00:52:46;;;;;;;;;;;;;;;17.02;100.00;99326.25;5051541;28;810;-57
2023/06/28 00:55:13;;;;;;;;;;;;;;;17.03;100.00;99324.25;5051577;28;817;-57
2023/06/28 00:57:39;;;;;;;;;;;;;;;16.98;100.00;99314.44;5051337;28;1952;-57
2023/06/28 01:00:11;;;;;;;;;;;;;;;16.97;100.00;99321.28;5051512;28;826;-57
2023/06/28 01:02:41;;;;;;;;;;;;;;;16.90;100.00;99319.53;5051724;28;905;-57
2023/06/28 01:05:09;;;;;;;;;;;;;;;16.87;100.00;99317.63;5051361;28;866;-58
2023/06/28 01:07:37;;;;;;;;;;;;;;;16.84;100.00;99318.56;5051493;28;838;-57
2023/06/28 01:10:04;;;;;;;;;;;;;;;16.84;100.00;99312.22;5051431;28;885;-57
2023/06/28 01:12:31;;;;;;;;;;;;;;;16.84;100.00;99318.56;5051359;28;1384;-57
2023/06/28 01:14:58;;;;;;;;;;;;;;;16.84;100.00;99313.00;5051363;28;861;-57
2023/06/28 01:17:26;;;;;;;;;;;;;;;16.82;100.00;99320.28;5051131;28;1961;-57
2023/06/28 01:19:54;;;;;;;;;;;;;;;16.77;100.00;99315.22;5051286;28;866;-57
2023/06/28 01:22:24;;;;;;;;;;;;;;;16.69;100.00;99323.13;5051260;28;862;-58
2023/06/28 01:24:52;;;;;;;;;;;;;;;16.64;100.00;99315.31;5051264;28;884;-58
2023/06/28 01:27:18;;;;;;;;;;;;;;;16.58;100.00;99317.94;5051053;28;889;-57
2023/06/28 01:29:47;;;;;;;;;;;;;;;16.57;100.00;99315.59;5051221;28;800;-58
2023/06/28 01:32:15;;;;;;;;;;;;;;;16.58;100.00;99311.56;5051149;28;814;-57
2023/06/28 01:34:41;;;;;;;;;;;;;;;16.60;100.00;99317.47;5051130;28;867;-57
2023/06/28 01:37:08;;;;;;;;;;;;;;;16.53;100.00;99321.28;5051082;28;1878;-57
2023/06/28 01:39:35;;;;;;;;;;;;;;;16.45;100.00;99325.56;5051192;28;874;-57
2023/06/28 01:42:01;;;;;;;;;;;;;;;16.40;100.00;99328.97;5051204;28;836;-57
2023/06/28 01:44:29;;;;;;;;;;;;;;;16.40;100.00;99324.16;5051048;28;831;-57
2023/06/28 01:46:56;;;;;;;;;;;;;;;16.46;100.00;99321.56;5051057;28;814;-57
2023/06/28 01:49:25;;;;;;;;;;;;;;;16.55;100.00;99329.97;5050845;28;830;-57
2023/06/28 01:51:53;;;;;;;;;;;;;;;16.63;100.00;99322.13;5050961;28;905;-57
2023/06/28 01:54:19;;;;;;;;;;;;;;;16.65;100.00;99317.66;5050901;28;873;-57
2023/06/28 01:56:46;;;;;;;;;;;;;;;16.67;100.00;99314.41;5050781;28;1902;-57
2023/06/28 01:59:14;;;;;;;;;;;;;;;16.66;100.00;99319.22;5050832;28;846;-57
2023/06/28 02:01:42;;;;;;;;;;;;;;;16.63;100.00;99325.69;5051217;28;889;-57
2023/06/28 02:04:09;;;;;;;;;;;;;;;16.62;100.00;99321.38;5050769;28;871;-57
2023/06/28 02:06:38;;;;;;;;;;;;;;;16.59;100.00;99321.50;5050826;28;870;-57
2023/06/28 02:09:05;;;;;;;;;;;;;;;16.57;100.00;99315.59;5050821;28;811;-57
2023/06/28 02:11:31;;;;;;;;;;;;;;;16.57;100.00;99310.00;5053544;28;918;-57
2023/06/28 02:13:58;;;;;;;;;;;;;;;16.55;100.00;99313.25;5054242;28;1267;-57
2023/06/28 02:16:27;;;;;;;;;;;;;;;16.51;100.00;99312.59;5054383;28;1973;-57
2023/06/28 02:18:57;;;;;;;;;;;;;;;16.46;100.00;99318.78;5054294;28;818;-57
2023/06/28 02:21:24;;;;;;;;;;;;;;;16.38;100.00;99315.47;5054594;28;846;-57
2023/06/28 02:23:50;;;;;;;;;;;;;;;16.32;100.00;99318.06;5054464;28;830;-57
2023/06/28 02:26:16;;;;;;;;;;;;;;;16.30;100.00;99322.53;5054628;28;882;-57
2023/06/28 02:28:44;;;;;;;;;;;;;;;16.28;100.00;99314.63;5054687;28;815;-57
2023/06/28 02:31:11;;;;;;;;;;;;;;;16.28;100.00;99311.84;5054559;28;842;-57
2023/06/28 02:33:37;;;;;;;;;;;;;;;16.26;100.00;99319.88;5054164;28;870;-57
2023/06/28 02:36:04;;;;;;;;;;;;;;;16.26;100.00;99316.31;5036327;28;2218;-57
2023/06/28 02:38:31;;;;;;;;;;;;;;;16.24;100.00;99310.41;5054114;28;858;-57
2023/06/28 02:40:58;;;;;;;;;;;;;;;16.20;100.00;99316.13;5053944;28;877;-57
2023/06/28 02:43:24;;;;;;;;;;;;;;;16.19;100.00;99314.53;5054232;28;847;-57
2023/06/28 02:45:50;;;;;;;;;;;;;;;16.27;100.00;99312.28;5053800;28;1009;-57
2023/06/28 02:48:17;;;;;;;;;;;;;;;16.33;100.00;99310.47;5053780;28;823;-57
2023/06/28 02:50:44;;;;;;;;;;;;;;;16.36;100.00;99315.13;5053760;28;811;-57
2023/06/28 02:53:11;;;;;;;;;;;;;;;16.40;100.00;99313.00;5053742;28;877;-57
2023/06/28 02:55:38;;;;;;;;;;;;;;;16.44;100.00;99310.09;5053519;28;890;-57
2023/06/28 02:58:04;;;;;;;;;;;;;;;16.40;100.00;99313.00;5053650;28;831;-57
2023/06/28 03:00:31;;;;;;;;;;;;;;;16.36;100.00;99317.91;5053554;28;868;-57
2023/06/28 03:02:58;;;;;;;;;;;;;;;16.36;100.00;99312.34;5053562;28;854;-57
2023/06/28 03:05:25;;;;;;;;;;;;;;;16.38;100.00;99312.66;5053530;28;818;-57
2023/06/28 03:07:52;;;;;;;;;;;;;;;16.41;100.00;99309.00;5053691;28;854;-57
2023/06/28 03:10:19;;;;;;;;;;;;;;;16.47;100.00;99307.19;5053407;28;854;-57
2023/06/28 03:12:46;;;;;;;;;;;;;;;16.53;100.00;99310.13;5053275;28;1126;-57
2023/06/28 03:15:13;;;;;;;;;;;;;;;16.58;100.00;99308.75;5053231;28;823;-57
2023/06/28 03:17:39;;;;;;;;;;;;;;;16.64;100.00;99310.53;5035359;28;1942;-57
2023/06/28 03:20:06;;;;;;;;;;;;;;;16.71;100.00;99307.47;5053361;28;918;-57
2023/06/28 03:22:33;;;;;;;;;;;;;;;16.76;100.00;99306.09;5052162;28;834;-57
2023/06/28 03:25:00;;;;;;;;;;;;;;;16.77;100.00;99312.44;5053025;28;807;-57
2023/06/28 03:27:26;;;;;;;;;;;;;;;16.79;100.00;99302.41;5035189;28;1201;-57
2023/06/28 03:29:53;;;;;;;;;;;;;;;16.85;100.00;99308.94;5053208;28;854;-57
2023/06/28 03:32:20;;;;;;;;;;;;;;;16.95;100.00;99307.00;5053225;28;823;-57
2023/06/28 03:34:46;;;;;;;;;;;;;;;17.07;100.00;99308.91;5052958;28;810;-57
2023/06/28 03:37:16;;;;;;;;;;;;;;;17.22;100.00;99311.13;5052797;28;1951;-57
2023/06/28 03:39:42;;;;;;;;;;;;;;;17.33;100.00;99315.06;5052781;28;947;-57
2023/06/28 03:42:09;;;;;;;;;;;;;;;17.45;100.00;99315.38;5052732;28;834;-57
2023/06/28 03:44:36;;;;;;;;;;;;;;;17.59;100.00;99314.81;5052732;28;885;-57
2023/06/28 03:47:03;;;;;;;;;;;;;;;17.72;100.00;99312.66;5052971;28;861;-57
2023/06/28 03:49:30;;;;;;;;;;;;;;;17.86;100.00;99319.69;5052633;28;870;-57
2023/06/28 03:51:57;;;;;;;;;;;;;;;17.99;100.00;99311.16;5052633;28;811;-57
2023/06/28 03:54:23;;;;;;;;;;;;;;;18.15;100.00;99301.69;5052426;28;862;-57
2023/06/28 03:56:49;;;;;;;;;;;;;;;18.30;100.00;99307.41;5052648;28;1886;-57
2023/06/28 03:59:16;;;;;;;;;;;;;;;18.43;100.00;99310.81;5052431;28;799;-57
2023/06/28 04:01:43;;;;;;;;;;;;;;;18.48;100.00;99307.41;5052471;28;842;-57
2023/06/28 04:04:10;;;;;;;;;;;;;;;18.39;100.00;99307.41;5052365;28;830;-57
2023/06/28 04:06:37;;;;;;;;;;;;;;;18.47;100.00;99311.44;5052339;28;815;-57
2023/06/28 04:09:04;;;;;;;;;;;;;;;18.68;100.00;99308.91;5052099;28;862;-57
2023/06/28 04:11:31;;;;;;;;;;;;;;;18.71;100.00;99305.16;5052494;28;878;-57
2023/06/28 04:13:58;;;;;;;;;;;;;;;18.78;100.00;99304.88;5051987;28;1401;-57
2023/06/28 04:16:25;;;;;;;;;;;;;;;18.91;100.00;99299.09;5052087;28;1969;-57
2023/06/28 04:18:54;;;;;;;;;;;;;;;19.09;100.00;99299.00;5052030;28;853;-57
2023/06/28 04:21:21;;;;;;;;;;;;;;;19.25;100.00;99297.84;5052092;28;885;-57
2023/06/28 04:23:48;;;;;;;;;;;;;;;19.38;100.00;99301.19;5051921;28;814;-57
2023/06/28 04:26:14;;;;;;;;;;;;;;;19.50;100.00;99307.84;5051961;28;866;-57
2023/06/28 04:28:41;;;;;;;;;;;;;;;19.62;100.00;99306.03;5051933;28;831;-58
2023/06/28 04:31:08;;;;;;;;;;;;;;;19.70;100.00;99298.84;5051870;28;818;-57
2023/06/28 04:33:35;;;;;;;;;;;;;;;19.78;100.00;99304.91;5051577;28;885;-57
2023/06/28 04:36:02;;;;;;;;;;;;;;;19.87;100.00;99307.63;5051756;28;1882;-56
2023/06/28 04:38:32;;;;;;;;;;;;;;;19.94;100.00;99309.28;5051694;28;869;-57
2023/06/28 04:40:59;;;;;;;;;;;;;;;19.95;100.00;99311.63;5051761;28;846;-57
2023/06/28 04:43:26;;;;;;;;;;;;;;;19.99;100.00;99308.59;5033763;28;1319;-56
2023/06/28 04:45:55;;;;;;;;;;;;;;;20.12;100.00;99306.34;5051658;28;846;-56
2023/06/28 04:48:22;;;;;;;;;;;;;;;20.28;100.00;99302.28;5051690;28;819;-56
2023/06/28 04:50:51;;;;;;;;;;;;;;;20.48;100.00;99307.25;5051757;28;901;-55
2023/06/28 04:53:18;;;;;;;;;;;;;;;20.66;100.00;99308.38;5052024;28;861;-55
2023/06/28 04:55:48;;;;;;;;;;;;;;;20.78;100.00;99304.47;5051639;28;1863;-56
2023/06/28 04:58:14;;;;;;;;;;;;;;;20.97;100.00;99317.06;5051564;28;831;-55
2023/06/28 05:00:42;;;;;;;;;;;;;;;21.12;100.00;99311.44;5051475;28;807;-56
2023/06/28 05:03:10;;;;;;;;;;;;;;;21.29;100.00;99322.91;5051437;28;887;-55
2023/06/28 05:05:37;;;;;;;;;;;;;;;21.43;100.00;99326.97;5051412;28;826;-56
2023/06/28 05:08:03;;;;;;;;;;;;;;;21.58;100.00;99319.25;5051382;28;866;-55
2023/06/28 05:10:30;;;;;;;;;;;;;;;21.70;100.00;99317.38;5051302;28;869;-55
2023/06/28 05:12:56;;;;;;;;;;;;;;;21.77;100.00;99314.16;5051396;28;1198;-55
2023/06/28 05:15:24;;;;;;;;;;;;;;;22.02;100.00;99323.94;5051365;28;830;-56
2023/06/28 05:17:51;;;;;;;;;;;;;;;22.35;100.00;99327.66;5051249;28;1906;-56
2023/06/28 05:20:18;;;;;;;;;;;;;;;22.68;100.00;99320.78;5051275;28;878;-55
2023/06/28 05:22:48;;;;;;;;;;;;;;;22.91;100.00;99322.53;5051181;28;897;-55
2023/06/28 05:25:16;;;;;;;;;;;;;;;23.05;100.00;99318.06;5051271;28;841;-54
2023/06/28 05:27:42;;;;;;;;;;;;;;;23.19;100.00;99319.97;5051342;28;819;-57
2023/06/28 05:30:09;;;;;;;;;;;;;;;23.43;100.00;99322.44;5051181;28;867;-55
2023/06/28 05:32:36;;;;;;;;;;;;;;;23.82;100.00;99321.91;5051166;28;906;-56
2023/06/28 05:35:03;;;;;;;;;;;;;;;24.19;100.00;99323.81;5033299;28;815;-56
2023/06/28 05:37:30;;;;;;;;;;;;;;;24.36;100.00;99317.47;5051057;28;1890;-54
2023/06/28 05:39:57;;;;;;;;;;;;;;;24.44;100.00;99327.75;5051075;28;794;-55
2023/06/28 05:42:24;;;;;;;;;;;;;;;24.55;100.00;99320.63;5051053;28;827;-56
2023/06/28 05:44:50;;;;;;;;;;;;;;;24.68;100.00;99320.13;5051040;28;802;-56
2023/06/28 05:47:17;;;;;;;;;;;;;;;24.67;100.00;99318.59;5037026;28;1434;-54
2023/06/28 05:49:44;;;;;;;;;;;;;;;24.97;100.00;99325.28;5054918;28;807;-55
2023/06/28 05:52:12;;;;;;;;;;;;;;;25.14;100.00;99313.19;5054777;28;863;-56
2023/06/28 05:54:39;;;;;;;;;;;;;;;25.55;100.00;99310.56;5054836;28;826;-51
2023/06/28 05:57:05;;;;;;;;;;;;;;;26.01;99.84;99314.81;5054691;28;1882;-55
2023/06/28 05:59:32;;;;;;;;;;;;;;;26.50;98.16;99314.28;5054840;28;830;-53
2023/06/28 06:01:59;;;;;;;;;;;;;;;26.98;96.71;99312.16;5054669;28;827;-52
2023/06/28 06:04:25;;;;;;;;;;;;;;;27.22;96.00;99314.28;5054646;28;835;-55
2023/06/28 06:06:52;;;;;;;;;;;;;;;27.60;94.19;99317.25;5054614;28;842;-55
2023/06/28 06:09:19;;;;;;;;;;;;;;;27.86;92.48;99308.94;5054577;28;855;-55
2023/06/28 06:11:46;;;;;;;;;;;;;;;28.45;89.36;99308.44;5054338;28;902;-55
2023/06/28 06:14:12;;;;;;;;;;;;;;;29.11;87.19;99308.72;5054358;28;1201;-55
2023/06/28 06:16:39;;;;;;;;;;;;;;;29.57;81.48;99311.50;5036481;28;1976;-55
2023/06/28 06:19:06;;;;;;;;;;;;;;;30.48;72.82;99310.41;5054341;28;858;-54
2023/06/28 06:21:33;;;;;;;;;;;;;;;31.44;68.53;99313.78;5054249;28;788;-55
2023/06/28 06:24:01;;;;;;;;;;;;;;;31.97;64.47;99321.91;5054388;28;814;-55
2023/06/28 06:26:27;;;;;;;;;;;;;;;32.31;62.14;99306.63;5054285;28;900;-55
2023/06/28 06:28:54;;;;;;;;;;;;;;;32.53;59.36;99299.47;5054230;28;886;-55
2023/06/28 06:31:22;;;;;;;;;;;;;;;33.08;57.77;99301.06;5054140;28;901;-54
2023/06/28 06:33:49;;;;;;;;;;;;;;;33.73;54.88;99304.22;5054113;28;819;-55
2023/06/28 06:36:15;;;;;;;;;;;;;;;34.16;47.57;99305.25;5054258;28;1975;-54
2023/06/28 06:38:42;;;;;;;;;;;;;;;34.43;46.72;99306.84;5036225;28;1355;-55
2023/06/28 06:41:09;;;;;;;;;;;;;;;34.68;45.16;99306.91;5054023;28;807;-54
2023/06/28 06:43:36;;;;;;;;;;;;;;;35.02;44.42;99314.88;5054013;28;872;-52
2023/06/28 06:46:02;;;;;;;;;;;;;;;35.42;42.82;99305.34;5054066;28;857;-54
2023/06/28 06:48:29;;;;;;;;;;;;;;;35.28;41.64;99301.28;5053878;28;831;-54
2023/06/28 06:50:56;;;;;;;;;;;;;;;35.08;41.42;99312.53;5053749;28;822;-54
2023/06/28 06:53:22;;;;;;;;;;;;;;;35.25;41.47;99316.78;5053704;28;941;-55
2023/06/28 06:55:49;;;;;;;;;;;;;;;35.17;41.30;99311.13;5053499;28;1985;-56
2023/06/28 06:58:15;;;;;;;;;;;;;;;35.31;41.21;99311.56;5053690;28;799;-56
2023/06/28 07:00:42;;;;;;;;;;;;;;;35.54;40.67;99309.22;5053913;28;814;-57
2023/06/28 07:03:09;;;;;;;;;;;;;;;35.75;39.81;99302.34;5053785;28;811;-56
2023/06/28 07:05:36;;;;;;;;;;;;;;;36.39;39.24;99288.88;5054033;28;806;-57
2023/06/28 07:08:03;;;;;;;;;;;;;;;36.97;38.16;99296.28;5053646;28;834;-57
2023/06/28 07:10:30;;;;;;;;;;;;;;;37.19;37.08;99289.41;5053537;28;889;-57
2023/06/28 07:12:57;;;;;;;;;;;;;;;37.32;37.48;99287.44;5053581;28;1353;-58
2023/06/28 07:15:24;;;;;;;;;;;;;;;36.73;36.35;99287.25;5053532;28;850;-57
2023/06/28 07:17:53;;;;;;;;;;;;;;;36.74;37.03;99285.13;5053706;28;1969;-57
2023/06/28 07:20:20;;;;;;;;;;;;;;;37.06;36.24;99284.03;5053095;28;997;-57
2023/06/28 07:22:47;;;;;;;;;;;;;;;37.35;36.79;99284.13;5053203;28;964;-57
2023/06/28 07:25:14;;;;;;;;;;;;;;;37.69;35.33;99281.59;5053178;28;862;-57
2023/06/28 07:27:40;;;;;;;;;;;;;;;38.12;34.47;99282.66;5053313;28;822;-57
2023/06/28 07:30:07;;;;;;;;;;;;;;;38.51;33.24;99279.69;5053103;28;791;-57
2023/06/28 07:32:34;;;;;;;;;;;;;;;38.46;32.76;99277.84;5053025;28;840;-57
2023/06/28 07:35:01;;;;;;;;;;;;;;;38.45;32.62;99281.34;5053059;28;893;-57
2023/06/28 07:37:30;;;;;;;;;;;;;;;38.57;31.95;99274.34;5052881;28;1878;-57
2023/06/28 07:39:57;;;;;;;;;;;;;;;38.78;31.65;99270.75;5052847;28;812;-56
2023/06/28 07:42:24;;;;;;;;;;;;;;;38.79;31.36;99268.63;5052846;28;850;-57
2023/06/28 07:44:51;;;;;;;;;;;;;;;38.81;30.84;99268.75;5052811;28;826;-57
2023/06/28 07:47:18;;;;;;;;;;;;;;;38.71;30.67;99265.19;5052692;28;795;-56
2023/06/28 07:49:45;;;;;;;;;;;;;;;38.74;30.71;99266.84;5052638;28;873;-56
2023/06/28 07:52:12;;;;;;;;;;;;;;;38.86;30.51;99266.91;5052674;28;810;-56
2023/06/28 07:54:39;;;;;;;;;;;;;;;39.15;30.27;99261.75;5052537;28;822;-55
2023/06/28 07:57:09;;;;;;;;;;;;;;;39.31;30.44;99270.78;5052493;28;1885;-55
2023/06/28 07:59:36;;;;;;;;;;;;;;;39.95;29.05;99261.31;5052473;28;848;-55
2023/06/28 08:02:02;;;;;;;;;;;;;;;39.91;29.08;99258.16;5052458;28;795;-55
2023/06/28 08:04:28;;;;;;;;;;;;;;;39.91;29.40;99261.06;5052391;28;842;-55
2023/06/28 08:06:55;;;;;;;;;;;;;;;37.89;30.45;99270.81;5052390;28;854;-56
2023/06/28 08:09:22;;;;;;;;;;;;;;;34.20;35.34;99270.44;5051743;28;865;-57
2023/06/28 08:11:49;;;;;;;;;;;;;;;31.48;40.44;99269.25;5052457;28;927;-56
2023/06/28 08:14:16;;;;;;;;;;;;;;;29.93;44.09;99271.19;5052034;28;1232;-57
2023/06/28 08:16:45;;;;;;;;;;;;;;;29.11;47.33;99271.72;5034196;28;1961;-57
2023/06/28 08:19:13;;;;;;;;;;;;;;;28.62;49.09;99276.94;5051913;28;965;-54
2023/06/28 08:21:40;;;;;;;;;;;;;;;28.54;50.24;99264.66;5052265;28;910;-56
2023/06/28 08:24:07;;;;;;;;;;;;;;;31.00;45.64;99260.16;5051898;28;898;-56
2023/06/28 08:26:36;;;;;;;;;;;;;;;33.89;39.89;99255.47;5052154;28;842;-55
2023/06/28 08:29:03;;;;;;;;;;;;;;;34.45;37.17;99252.50;5051899;28;874;-56
2023/06/28 08:31:30;;;;;;;;;;;;;;;32.89;38.50;99255.63;5051859;28;791;-56
2023/06/28 08:33:58;;;;;;;;;;;;;;;33.15;39.27;99255.25;5052118;28;866;-57
2023/06/28 08:36:25;;;;;;;;;;;;;;;34.02;36.94;99246.63;5051716;28;1894;-57
2023/06/28 08:38:51;;;;;;;;;;;;;;;34.78;35.72;99253.22;5051866;28;818;-57
2023/06/28 08:41:18;;;;;;;;;;;;;;;35.43;34.93;99254.41;5033875;28;857;-55
2023/06/28 08:43:49;;;;;;;;;;;;;;;36.45;33.09;99247.59;5051890;28;849;-55
2023/06/28 08:46:16;;;;;;;;;;;;;;;36.76;32.73;99247.88;5051691;28;839;-56
2023/06/28 08:48:44;;;;;;;;;;;;;;;36.42;32.33;99245.91;5051525;28;921;-56
2023/06/28 08:51:11;;;;;;;;;;;;;;;35.95;34.33;99248.63;5051669;28;810;-56
2023/06/28 08:53:37;;;;;;;;;;;;;;;34.42;34.87;99247.94;5051578;28;858;-56
2023/06/28 08:56:04;;;;;;;;;;;;;;;32.62;37.58;99250.25;5051508;28;1886;-57
2023/06/28 08:58:31;;;;;;;;;;;;;;;31.55;40.56;99259.22;5051549;28;807;-57
2023/06/28 09:00:59;;;;;;;;;;;;;;;30.94;41.77;99259.56;5051690;28;811;-57
2023/06/28 09:03:26;;;;;;;;;;;;;;;30.70;42.64;99258.56;5033683;28;854;-56
2023/06/28 09:05:52;;;;;;;;;;;;;;;30.55;42.79;99252.69;5051481;28;894;-56
2023/06/28 09:08:19;;;;;;;;;;;;;;;30.74;43.30;99250.41;5051374;28;803;-55
2023/06/28 09:10:46;;;;;;;;;;;;;;;30.91;44.40;99252.09;5051335;28;838;-56
2023/06/28 09:13:19;;;;;;;;;;;;;;;31.02;45.15;99251.03;5051189;28;1407;-56
2023/06/28 09:15:46;;;;;;;;;;;;;;;30.98;44.75;99244.91;5052002;28;767;-57
2023/06/28 09:18:13;;;;;;;;;;;;;;;31.06;44.44;99240.78;5051749;28;1926;-57
2023/06/28 09:20:47;;;;;;;;;;;;;;;31.20;43.95;99238.63;5053531;28;823;-57
2023/06/28 09:23:14;;;;;;;;;;;;;;;31.32;44.04;99241.91;5055509;28;834;-56
2023/06/28 09:25:41;;;;;;;;;;;;;;;31.46;43.96;99246.22;5055253;28;942;-58
2023/06/28 09:28:08;;;;;;;;;;;;;;;31.76;43.51;99253.41;5055377;28;886;-56
2023/06/28 09:30:36;;;;;;;;;;;;;;;32.13;42.72;99234.91;5055244;28;904;-57
2023/06/28 09:33:05;;;;;;;;;;;;;;;32.38;41.99;99242.97;5055265;28;858;-57
2023/06/28 09:35:36;;;;;;;;;;;;;;;32.84;41.23;99231.59;5055245;28;830;-56
2023/06/28 09:38:11;;;;;;;;;;;;;;;32.95;41.08;99231.19;5055148;28;1889;-57
2023/06/28 10:11:40;;;;;;;;;;;;;;;31.66;43.34;99223.84;5684153;22;1522;-64
2023/06/28 10:14:07;;;;;;;;;;;;;;;31.48;42.51;99217.09;5036496;28;1287;-65
2023/06/28 10:16:36;;;;;;;;;;;;;;;31.30;43.25;99218.88;5054545;28;1914;-65
2023/06/28 10:19:04;;;;;;;;;;;;;;;30.85;44.74;99217.97;5054337;28;845;-66
2023/06/28 10:21:31;;;;;;;;;;;;;;;30.26;46.25;99211.91;5054557;28;873;-65
2023/06/28 10:23:58;;;;;;;;;;;;;;;30.47;46.65;99220.50;5054286;28;909;-65
2023/06/28 10:26:27;;;;;;;;;;;;;;;31.14;45.70;99210.22;5054334;28;866;-65
2023/06/28 10:28:54;;;;;;;;;;;;;;;31.48;44.48;99211.41;5054377;28;822;-65
2023/06/28 10:31:20;;;;;;;;;;;;;;;32.45;43.52;99207.13;5053826;28;838;-65
2023/06/28 10:33:48;;;;;;;;;;;;;;;33.15;41.34;99203.72;5054246;28;826;-63
2023/06/28 10:36:15;;;;;;;;;;;;;;;33.41;40.22;99209.56;5054149;28;1893;-64
2023/06/28 10:38:44;;;;;;;;;;;;;;;33.23;39.74;99200.09;5054326;28;846;-64
2023/06/28 10:41:19;;;;;;;;;;;;;;;33.59;39.52;99208.38;5053834;28;893;-64
2023/06/28 10:43:46;;;;;;;;;;;;;;;33.72;39.09;99195.94;5054389;28;857;-64
2023/06/28 10:46:23;;;;;;;;;;;;;;;33.99;39.40;99195.41;5054283;28;814;-64
2023/06/28 10:48:59;;;;;;;;;;;;;;;34.41;38.78;99191.91;5053910;28;878;-64
2023/06/28 10:51:33;;;;;;;;;;;;;;;34.17;39.07;99191.31;5053827;28;865;-64
2023/06/28 10:54:08;;;;;;;;;;;;;;;33.11;40.16;99189.03;5053848;28;842;-64
2023/06/28 10:56:47;;;;;;;;;;;;;;;31.48;41.78;99191.41;5053758;28;1894;-65
2023/06/28 10:59:14;;;;;;;;;;;;;;;30.68;43.71;99187.06;5053760;28;881;-65
2023/06/28 11:01:51;;;;;;;;;;;;;;;30.60;44.04;99185.44;5054104;28;825;-65
2023/06/28 11:04:20;;;;;;;;;;;;;;;31.69;41.53;99185.59;5053659;28;867;-65
2023/06/28 11:06:47;;;;;;;;;;;;;;;32.87;39.69;99178.94;5053597;28;850;-65
2023/06/28 11:09:18;;;;;;;;;;;;;;;34.06;38.44;99174.56;5035543;28;851;-65
2023/06/28 11:11:54;;;;;;;;;;;;;;;34.46;36.47;99185.19;5053507;28;1369;-65
2023/06/28 11:14:25;;;;;;;;;;;;;;;34.10;37.17;99172.78;5053501;28;858;-65
2023/06/28 11:16:51;;;;;;;;;;;;;;;33.82;38.08;99179.66;5053278;28;1914;-65
2023/06/28 11:19:24;;;;;;;;;;;;;;;34.37;37.16;99177.97;5053368;28;814;-64
2023/06/28 11:21:57;;;;;;;;;;;;;;;34.29;35.92;99172.31;5053252;28;878;-65
2023/06/28 11:24:33;;;;;;;;;;;;;;;33.74;36.42;99170.34;5053327;28;814;-64
2023/06/28 11:27:00;;;;;;;;;;;;;;;34.21;36.72;99185.94;5053153;28;865;-62
2023/06/28 11:29:27;;;;;;;;;;;;;;;34.42;35.74;99182.75;5053217;28;846;-63
2023/06/28 11:31:57;;;;;;;;;;;;;;;33.28;36.62;99174.09;5053127;28;818;-64
2023/06/28 11:34:25;;;;;;;;;;;;;;;33.69;36.41;99174.16;5053080;28;846;-63
2023/06/28 11:36:52;;;;;;;;;;;;;;;34.50;36.15;99171.97;5053008;28;1948;-63
2023/06/28 11:39:19;;;;;;;;;;;;;;;34.47;36.25;99167.38;5052850;28;902;-63
2023/06/28 11:41:46;;;;;;;;;;;;;;;33.88;37.00;99173.69;5052934;28;866;-64
2023/06/28 11:44:15;;;;;;;;;;;;;;;34.31;36.16;99175.38;5052010;28;794;-63
2023/06/28 11:46:45;;;;;;;;;;;;;;;34.32;35.46;99170.38;5052797;28;851;-62
2023/06/28 11:49:13;;;;;;;;;;;;;;;34.74;35.26;99161.84;5053059;28;900;-62
2023/06/28 11:51:41;;;;;;;;;;;;;;;34.74;34.29;99164.69;5053105;28;842;-62
2023/06/28 11:54:08;;;;;;;;;;;;;;;35.16;33.99;99169.69;5052668;28;870;-62
2023/06/28 11:56:40;;;;;;;;;;;;;;;35.58;33.35;99162.28;5052675;28;1885;-62
2023/06/28 11:59:12;;;;;;;;;;;;;;;35.94;32.88;99167.38;5052922;28;807;-62
2023/06/28 12:01:38;;;;;;;;;;;;;;;34.79;34.06;99171.53;5052526;28;794;-64
2023/06/28 12:04:18;;;;;;;;;;;;;;;33.36;36.42;99182.69;5052529;28;835;-64
2023/06/28 12:06:45;;;;;;;;;;;;;;;32.51;37.32;99176.25;5052530;28;830;-63
2023/06/28 12:09:23;;;;;;;;;;;;;;;32.20;38.13;99179.09;5052349;28;846;-63
2023/06/28 12:11:54;;;;;;;;;;;;;;;32.11;38.50;99174.72;5052281;28;1288;-63
2023/06/28 12:14:21;;;;;;;;;;;;;;;31.90;38.62;99185.47;5052342;28;798;-63
2023/06/28 12:16:50;;;;;;;;;;;;;;;31.93;38.90;99187.94;5052094;28;1988;-64
2023/06/28 12:19:17;;;;;;;;;;;;;;;31.67;39.26;99176.84;5052115;28;841;-64
2023/06/28 12:21:45;;;;;;;;;;;;;;;31.22;40.20;99170.31;5052229;28;881;-63
2023/06/28 12:24:12;;;;;;;;;;;;;;;30.99;40.86;99178.75;5052932;28;818;-64
2023/06/28 12:26:39;;;;;;;;;;;;;;;30.91;41.50;99183.63;5052453;28;799;-63
2023/06/28 12:29:07;;;;;;;;;;;;;;;30.70;41.99;99172.22;5052475;28;825;-64
2023/06/28 12:31:43;;;;;;;;;;;;;;;30.56;43.02;99180.09;5052331;28;830;-67
2023/06/28 12:34:09;;;;;;;;;;;;;;;30.48;42.29;99177.19;5051916;28;811;-64
2023/06/28 12:36:38;;;;;;;;;;;;;;;30.46;42.63;99176.22;5051918;28;1890;-64
2023/06/28 12:39:06;;;;;;;;;;;;;;;30.55;42.71;99175.72;5051715;28;869;-63
2023/06/28 12:41:32;;;;;;;;;;;;;;;30.48;42.55;99176.41;5051880;28;866;-63
2023/06/28 12:44:00;;;;;;;;;;;;;;;30.53;42.37;99176.28;5051853;28;870;-63
2023/06/28 12:46:28;;;;;;;;;;;;;;;30.68;43.01;99169.94;5051801;28;826;-64
2023/06/28 12:48:55;;;;;;;;;;;;;;;30.94;43.34;99173.97;5051812;28;850;-64
2023/06/28 12:51:22;;;;;;;;;;;;;;;30.97;43.70;99175.69;5051657;28;984;-63
2023/06/28 12:53:51;;;;;;;;;;;;;;;31.18;43.42;99174.88;5051433;28;850;-63
2023/06/28 12:56:18;;;;;;;;;;;;;;;30.68;44.33;99183.41;5051516;28;1886;-63
2023/06/28 12:58:45;;;;;;;;;;;;;;;30.25;45.09;99176.19;5051662;28;818;-63
2023/06/28 13:01:12;;;;;;;;;;;;;;;29.87;45.75;99170.84;5051501;28;1212;-63
2023/06/28 13:03:39;;;;;;;;;;;;;;;29.66;46.32;99165.84;5051480;28;854;-64
2023/06/28 13:06:06;;;;;;;;;;;;;;;29.47;46.44;99163.16;5051643;28;822;-63
2023/06/28 13:08:33;;;;;;;;;;;;;;;29.58;46.23;99169.94;5051397;28;791;-63
2023/06/28 13:11:00;;;;;;;;;;;;;;;29.63;46.40;99169.03;5051769;28;977;-63
2023/06/28 13:13:27;;;;;;;;;;;;;;;29.44;46.65;99154.94;5033323;28;1444;-66
2023/06/28 13:15:54;;;;;;;;;;;;;;;29.21;47.69;99168.84;5051524;28;929;-63
2023/06/28 13:18:21;;;;;;;;;;;;;;;29.07;48.35;99168.84;5051338;28;1905;-63
2023/06/28 13:20:48;;;;;;;;;;;;;;;29.03;48.88;99159.88;5051389;28;866;-65
2023/06/28 13:23:15;;;;;;;;;;;;;;;28.98;48.58;99163.59;5051391;28;854;-64
2023/06/28 13:25:41;;;;;;;;;;;;;;;28.98;48.85;99160.75;5051378;28;1059;-65
2023/06/28 13:28:08;;;;;;;;;;;;;;;29.07;49.02;99160.31;5051334;28;905;-64
2023/06/28 13:34:05;;;;;;;;;;;;;;;31.38;45.04;99154.03;5051276;28;609;-64
2023/06/28 13:36:32;;;;;;;;;;;;;;;31.86;43.36;99153.66;5051175;28;1959;-65